首页
METAR-TAF:

METAR-TAF

机场 :

卡斯尔加, 不列颠哥伦比亚, 加拿大

纬度: 49-18N, 经度: 117-38W, 海拔: 495米

当前天气观测

该预报发布于34分钟前的01:00 UTC
风速13节,风向南转南东,有时为20节阵风
温度 10°C
湿度 76%
气压 1014 hPa
能見度: 24.1公里
少量云层高于2500英尺
多云层高于5400英尺
多云层高于10000英尺

METAR: CYCG 170100Z 16013G20KT 15SM FEW025 BKN054 BKN100 10/06 A2995 RMK SC1CU5AC1 LAST OBS/NXT 171300Z VIS S 5 PCPN DIST S SLP151

时间: 18:34 (01:34 UTC)

预报

该预报发布于54分钟前的00:40 UTC
预报有效从17日的 01点(UTC)到 17日的 04点(UTC)
风速3节,风向多变
能見度: 10公里
少量云层高于3000英尺
多云层高于8000英尺
阴天层高于12000英尺
短暂存在
从 17日的 01点(UTC)到 17日的 04点(UTC)
能見度: 10公里
散云层高于3000英尺
多云层高于6000英尺
小阵雨

TAF: CYCG 170040Z 1701/1704 VRB03KT P6SM FEW030 BKN080 OVC120 TEMPO 1701/1704 P6SM -SHRA SCT030 BKN060 RMK NXT FCST BY 171500Z

超过4000个机场的气象观测和天气预报(METAR&TAF报告)。

可查询的气象台以黄色和红色小点在地图上表示。

将鼠标移到小点上方,可查看气象台名称。

然后点击查看天气观测和预报。

如需切换地图:点击带黑十字的绿色按钮放大地图;点击带横线的绿色按钮缩小地图;或者点击绿色箭头查看邻近地区的地图。


METAR-TAF: